sensor_id;sensor_type;location;lat;lon;timestamp;pressure;altitude;pressure_sealevel;temperature
66299;BMP180;53098;47.658;8.578;2024-03-29T00:00:41;228747.00;;;220.60
66299;BMP180;53098;47.658;8.578;2024-03-29T00:03:07;95377.00;;;5.10
66299;BMP180;53098;47.658;8.578;2024-03-29T00:05:33;94776.00;;;5.30
66299;BMP180;53098;47.658;8.578;2024-03-29T00:07:59;94778.00;;;5.30
66299;BMP180;53098;47.658;8.578;2024-03-29T00:10:24;94782.00;;;5.30
66299;BMP180;53098;47.658;8.578;2024-03-29T00:12:50;94777.00;;;5.30
66299;BMP180;53098;47.658;8.578;2024-03-29T00:15:15;94768.00;;;5.30
66299;BMP180;53098;47.658;8.578;2024-03-29T00:17:41;94765.00;;;5.30
66299;BMP180;53098;47.658;8.578;2024-03-29T00:20:07;94767.00;;;5.30
66299;BMP180;53098;47.658;8.578;2024-03-29T00:22:32;94757.00;;;4.80
66299;BMP180;53098;47.658;8.578;2024-03-29T00:25:00;94739.00;;;5.00
66299;BMP180;53098;47.658;8.578;2024-03-29T00:27:26;94722.00;;;5.20
66299;BMP180;53098;47.658;8.578;2024-03-29T00:29:51;94734.00;;;5.20
66299;BMP180;53098;47.658;8.578;2024-03-29T00:32:17;94726.00;;;5.10
66299;BMP180;53098;47.658;8.578;2024-03-29T00:34:45;94712.00;;;5.10
66299;BMP180;53098;47.658;8.578;2024-03-29T00:37:13;94708.00;;;5.10
66299;BMP180;53098;47.658;8.578;2024-03-29T00:39:39;94704.00;;;5.10
66299;BMP180;53098;47.658;8.578;2024-03-29T00:42:04;94683.00;;;5.00
66299;BMP180;53098;47.658;8.578;2024-03-29T00:44:30;94692.00;;;5.00
66299;BMP180;53098;47.658;8.578;2024-03-29T00:46:55;94692.00;;;5.00
66299;BMP180;53098;47.658;8.578;2024-03-29T00:49:20;94685.00;;;5.00
66299;BMP180;53098;47.658;8.578;2024-03-29T00:51:49;94684.00;;;5.00
66299;BMP180;53098;47.658;8.578;2024-03-29T00:54:14;94684.00;;;4.90
66299;BMP180;53098;47.658;8.578;2024-03-29T00:56:40;94680.00;;;5.00
66299;BMP180;53098;47.658;8.578;2024-03-29T00:59:05;94681.00;;;5.00
66299;BMP180;53098;47.658;8.578;2024-03-29T01:01:30;94676.00;;;4.90
66299;BMP180;53098;47.658;8.578;2024-03-29T01:03:56;94674.00;;;4.90
66299;BMP180;53098;47.658;8.578;2024-03-29T01:06:22;94672.00;;;4.90
66299;BMP180;53098;47.658;8.578;2024-03-29T01:08:47;94668.00;;;4.90
66299;BMP180;53098;47.658;8.578;2024-03-29T01:11:13;94677.00;;;4.90
66299;BMP180;53098;47.658;8.578;2024-03-29T01:13:41;94670.00;;;4.90
66299;BMP180;53098;47.658;8.578;2024-03-29T01:16:07;94666.00;;;5.00
66299;BMP180;53098;47.658;8.578;2024-03-29T01:18:32;94660.00;;;5.00
66299;BMP180;53098;47.658;8.578;2024-03-29T01:20:58;94664.00;;;5.00
66299;BMP180;53098;47.658;8.578;2024-03-29T01:23:26;94690.00;;;5.20
66299;BMP180;53098;47.658;8.578;2024-03-29T01:25:52;94679.00;;;5.00
66299;BMP180;53098;47.658;8.578;2024-03-29T01:28:17;94693.00;;;5.00
66299;BMP180;53098;47.658;8.578;2024-03-29T01:30:53;94678.00;;;5.00
66299;BMP180;53098;47.658;8.578;2024-03-29T01:33:24;94682.00;;;5.00
66299;BMP180;53098;47.658;8.578;2024-03-29T01:35:50;94682.00;;;5.00
66299;BMP180;53098;47.658;8.578;2024-03-29T01:38:15;94678.00;;;5.00
66299;BMP180;53098;47.658;8.578;2024-03-29T01:40:42;94690.00;;;4.90
66299;BMP180;53098;47.658;8.578;2024-03-29T01:43:07;94691.00;;;4.90
66299;BMP180;53098;47.658;8.578;2024-03-29T01:45:40;94696.00;;;4.90
66299;BMP180;53098;47.658;8.578;2024-03-29T01:48:07;94697.00;;;4.90
66299;BMP180;53098;47.658;8.578;2024-03-29T01:50:33;94681.00;;;4.80
66299;BMP180;53098;47.658;8.578;2024-03-29T01:52:59;94675.00;;;4.70
66299;BMP180;53098;47.658;8.578;2024-03-29T01:55:25;94674.00;;;4.70
66299;BMP180;53098;47.658;8.578;2024-03-29T01:57:51;94684.00;;;4.60
66299;BMP180;53098;47.658;8.578;2024-03-29T02:00:20;94673.00;;;4.70
66299;BMP180;53098;47.658;8.578;2024-03-29T02:02:46;94661.00;;;4.60
66299;BMP180;53098;47.658;8.578;2024-03-29T02:05:12;94658.00;;;4.50
66299;BMP180;53098;47.658;8.578;2024-03-29T02:07:46;94669.00;;;4.50
66299;BMP180;53098;47.658;8.578;2024-03-29T02:10:15;228747.00;;;220.60
66299;BMP180;53098;47.658;8.578;2024-03-29T02:12:41;228747.00;;;220.60
66299;BMP180;53098;47.658;8.578;2024-03-29T02:15:06;228747.00;;;220.60
66299;BMP180;53098;47.658;8.578;2024-03-29T02:17:32;76880.00;;;4.10
66299;BMP180;53098;47.658;8.578;2024-03-29T02:19:58;94650.00;;;4.20
66299;BMP180;53098;47.658;8.578;2024-03-29T02:22:24;94642.00;;;4.10
66299;BMP180;53098;47.658;8.578;2024-03-29T02:24:51;94652.00;;;4.10
66299;BMP180;53098;47.658;8.578;2024-03-29T02:27:16;94649.00;;;4.10
66299;BMP180;53098;47.658;8.578;2024-03-29T02:29:42;94656.00;;;4.30
66299;BMP180;53098;47.658;8.578;2024-03-29T02:32:07;94645.00;;;4.20
66299;BMP180;53098;47.658;8.578;2024-03-29T02:34:32;94636.00;;;4.10
66299;BMP180;53098;47.658;8.578;2024-03-29T02:36:58;94642.00;;;4.30
66299;BMP180;53098;47.658;8.578;2024-03-29T02:39:23;94641.00;;;4.30
66299;BMP180;53098;47.658;8.578;2024-03-29T02:41:49;94633.00;;;4.00
66299;BMP180;53098;47.658;8.578;2024-03-29T02:44:14;94648.00;;;4.00
66299;BMP180;53098;47.658;8.578;2024-03-29T02:46:39;94656.00;;;4.20
66299;BMP180;53098;47.658;8.578;2024-03-29T02:49:05;94664.00;;;4.10
66299;BMP180;53098;47.658;8.578;2024-03-29T02:51:30;94668.00;;;4.20
66299;BMP180;53098;47.658;8.578;2024-03-29T02:53:55;94669.00;;;4.20
66299;BMP180;53098;47.658;8.578;2024-03-29T02:56:21;94657.00;;;4.20
66299;BMP180;53098;47.658;8.578;2024-03-29T02:58:47;94650.00;;;4.30
66299;BMP180;53098;47.658;8.578;2024-03-29T03:01:13;94652.00;;;4.30
66299;BMP180;53098;47.658;8.578;2024-03-29T03:03:38;94658.00;;;4.40
66299;BMP180;53098;47.658;8.578;2024-03-29T03:06:04;94658.00;;;4.30
66299;BMP180;53098;47.658;8.578;2024-03-29T03:08:29;94655.00;;;4.30
66299;BMP180;53098;47.658;8.578;2024-03-29T03:10:55;94648.00;;;4.30
66299;BMP180;53098;47.658;8.578;2024-03-29T03:13:20;94650.00;;;4.30
66299;BMP180;53098;47.658;8.578;2024-03-29T03:15:45;94642.00;;;4.30
66299;BMP180;53098;47.658;8.578;2024-03-29T03:18:11;94658.00;;;4.30
66299;BMP180;53098;47.658;8.578;2024-03-29T03:20:36;94643.00;;;4.40
66299;BMP180;53098;47.658;8.578;2024-03-29T03:23:01;94642.00;;;4.40
66299;BMP180;53098;47.658;8.578;2024-03-29T03:25:27;94638.00;;;4.40
66299;BMP180;53098;47.658;8.578;2024-03-29T03:27:53;94649.00;;;4.40
66299;BMP180;53098;47.658;8.578;2024-03-29T03:30:18;94660.00;;;4.50
66299;BMP180;53098;47.658;8.578;2024-03-29T03:32:44;228747.00;;;220.60
66299;BMP180;53098;47.658;8.578;2024-03-29T03:35:09;228747.00;;;220.60
66299;BMP180;53098;47.658;8.578;2024-03-29T03:37:34;228747.00;;;220.60
66299;BMP180;53098;47.658;8.578;2024-03-29T03:40:00;228747.00;;;220.60
66299;BMP180;53098;47.658;8.578;2024-03-29T03:42:28;70883.00;;;4.50
66299;BMP180;53098;47.658;8.578;2024-03-29T03:44:53;94679.00;;;4.50
66299;BMP180;53098;47.658;8.578;2024-03-29T03:47:19;94688.00;;;4.50
66299;BMP180;53098;47.658;8.578;2024-03-29T03:49:44;228747.00;;;220.60
66299;BMP180;53098;47.658;8.578;2024-03-29T03:52:09;94665.00;;;4.60
66299;BMP180;53098;47.658;8.578;2024-03-29T03:54:35;94673.00;;;4.60
66299;BMP180;53098;47.658;8.578;2024-03-29T03:57:00;94661.00;;;4.60
66299;BMP180;53098;47.658;8.578;2024-03-29T03:59:25;94670.00;;;4.60
66299;BMP180;53098;47.658;8.578;2024-03-29T04:01:51;94667.00;;;4.60
66299;BMP180;53098;47.658;8.578;2024-03-29T04:04:17;94675.00;;;4.60
66299;BMP180;53098;47.658;8.578;2024-03-29T04:06:42;228747.00;;;220.60
66299;BMP180;53098;47.658;8.578;2024-03-29T04:09:07;228747.00;;;220.60
66299;BMP180;53098;47.658;8.578;2024-03-29T04:11:33;94675.00;;;4.70
66299;BMP180;53098;47.658;8.578;2024-03-29T04:13:58;228747.00;;;220.60
66299;BMP180;53098;47.658;8.578;2024-03-29T04:16:23;228747.00;;;220.60
66299;BMP180;53098;47.658;8.578;2024-03-29T04:18:49;228747.00;;;220.60
66299;BMP180;53098;47.658;8.578;2024-03-29T04:21:14;228747.00;;;220.60
66299;BMP180;53098;47.658;8.578;2024-03-29T04:23:39;228747.00;;;220.60
66299;BMP180;53098;47.658;8.578;2024-03-29T04:26:05;228747.00;;;220.60
66299;BMP180;53098;47.658;8.578;2024-03-29T04:28:30;228747.00;;;220.60
66299;BMP180;53098;47.658;8.578;2024-03-29T04:30:57;228747.00;;;220.60
66299;BMP180;53098;47.658;8.578;2024-03-29T04:33:23;228747.00;;;220.60
66299;BMP180;53098;47.658;8.578;2024-03-29T04:35:56;228747.00;;;220.60
66299;BMP180;53098;47.658;8.578;2024-03-29T04:38:22;94591.00;;;4.90
66299;BMP180;53098;47.658;8.578;2024-03-29T04:40:48;94659.00;;;5.00
66299;BMP180;53098;47.658;8.578;2024-03-29T04:43:14;94650.00;;;4.80
66299;BMP180;53098;47.658;8.578;2024-03-29T04:45:40;94669.00;;;5.00
66299;BMP180;53098;47.658;8.578;2024-03-29T04:48:05;228747.00;;;220.60
66299;BMP180;53098;47.658;8.578;2024-03-29T04:50:33;228747.00;;;220.60
66299;BMP180;53098;47.658;8.578;2024-03-29T04:52:59;228747.00;;;220.60
66299;BMP180;53098;47.658;8.578;2024-03-29T04:55:24;94695.00;;;5.00
66299;BMP180;53098;47.658;8.578;2024-03-29T04:57:50;94708.00;;;5.20
66299;BMP180;53098;47.658;8.578;2024-03-29T05:00:15;94734.00;;;5.10
66299;BMP180;53098;47.658;8.578;2024-03-29T05:02:41;94767.00;;;5.00
66299;BMP180;53098;47.658;8.578;2024-03-29T05:05:13;94781.00;;;5.00
66299;BMP180;53098;47.658;8.578;2024-03-29T05:07:39;94777.00;;;4.90
66299;BMP180;53098;47.658;8.578;2024-03-29T05:10:05;94776.00;;;4.80
66299;BMP180;53098;47.658;8.578;2024-03-29T05:12:31;94753.00;;;4.90
66299;BMP180;53098;47.658;8.578;2024-03-29T05:14:56;94730.00;;;4.80
66299;BMP180;53098;47.658;8.578;2024-03-29T05:17:22;94719.00;;;4.90
66299;BMP180;53098;47.658;8.578;2024-03-29T05:19:47;228747.00;;;220.60
66299;BMP180;53098;47.658;8.578;2024-03-29T05:22:13;228747.00;;;220.60
66299;BMP180;53098;47.658;8.578;2024-03-29T05:24:38;228747.00;;;220.60
66299;BMP180;53098;47.658;8.578;2024-03-29T05:27:04;228747.00;;;220.60
66299;BMP180;53098;47.658;8.578;2024-03-29T05:29:29;228747.00;;;220.60
66299;BMP180;53098;47.658;8.578;2024-03-29T05:31:55;228747.00;;;220.60
66299;BMP180;53098;47.658;8.578;2024-03-29T05:34:20;228747.00;;;220.60
66299;BMP180;53098;47.658;8.578;2024-03-29T05:36:45;228747.00;;;220.60
66299;BMP180;53098;47.658;8.578;2024-03-29T05:39:11;228747.00;;;220.60
66299;BMP180;53098;47.658;8.578;2024-03-29T05:41:37;228747.00;;;220.60
66299;BMP180;53098;47.658;8.578;2024-03-29T05:44:03;228747.00;;;220.60
66299;BMP180;53098;47.658;8.578;2024-03-29T05:46:29;228747.00;;;220.60
66299;BMP180;53098;47.658;8.578;2024-03-29T05:48:54;228747.00;;;220.60
66299;BMP180;53098;47.658;8.578;2024-03-29T05:51:20;228747.00;;;220.60
66299;BMP180;53098;47.658;8.578;2024-03-29T05:53:45;228747.00;;;220.60
66299;BMP180;53098;47.658;8.578;2024-03-29T05:56:10;228747.00;;;220.60
66299;BMP180;53098;47.658;8.578;2024-03-29T05:58:36;228747.00;;;220.60
66299;BMP180;53098;47.658;8.578;2024-03-29T06:01:01;228747.00;;;220.60
66299;BMP180;53098;47.658;8.578;2024-03-29T06:03:27;228747.00;;;220.60
66299;BMP180;53098;47.658;8.578;2024-03-29T06:05:52;228747.00;;;220.60
66299;BMP180;53098;47.658;8.578;2024-03-29T06:08:18;228747.00;;;220.60
66299;BMP180;53098;47.658;8.578;2024-03-29T06:10:43;228747.00;;;220.60
66299;BMP180;53098;47.658;8.578;2024-03-29T06:13:08;228747.00;;;220.60
66299;BMP180;53098;47.658;8.578;2024-03-29T06:15:34;228747.00;;;220.60
66299;BMP180;53098;47.658;8.578;2024-03-29T06:17:59;228747.00;;;220.60
66299;BMP180;53098;47.658;8.578;2024-03-29T06:20:25;228747.00;;;220.60
66299;BMP180;53098;47.658;8.578;2024-03-29T06:22:50;228747.00;;;220.60
66299;BMP180;53098;47.658;8.578;2024-03-29T06:25:16;228747.00;;;220.60
66299;BMP180;53098;47.658;8.578;2024-03-29T06:27:41;228747.00;;;220.60
66299;BMP180;53098;47.658;8.578;2024-03-29T06:30:07;228747.00;;;220.60
66299;BMP180;53098;47.658;8.578;2024-03-29T06:32:32;228747.00;;;220.60
66299;BMP180;53098;47.658;8.578;2024-03-29T06:34:58;228747.00;;;220.60
66299;BMP180;53098;47.658;8.578;2024-03-29T06:37:24;228747.00;;;220.60
66299;BMP180;53098;47.658;8.578;2024-03-29T06:39:49;228747.00;;;220.60
66299;BMP180;53098;47.658;8.578;2024-03-29T06:42:15;228747.00;;;220.60
66299;BMP180;53098;47.658;8.578;2024-03-29T06:44:41;228747.00;;;220.60
66299;BMP180;53098;47.658;8.578;2024-03-29T06:47:07;228747.00;;;220.60
66299;BMP180;53098;47.658;8.578;2024-03-29T06:49:33;228747.00;;;220.60
66299;BMP180;53098;47.658;8.578;2024-03-29T06:51:58;228747.00;;;220.60
66299;BMP180;53098;47.658;8.578;2024-03-29T06:54:24;228747.00;;;220.60
66299;BMP180;53098;47.658;8.578;2024-03-29T06:56:49;228747.00;;;220.60
66299;BMP180;53098;47.658;8.578;2024-03-29T06:59:14;228747.00;;;220.60
66299;BMP180;53098;47.658;8.578;2024-03-29T07:01:40;228747.00;;;220.60
66299;BMP180;53098;47.658;8.578;2024-03-29T07:04:05;228747.00;;;220.60
66299;BMP180;53098;47.658;8.578;2024-03-29T07:06:31;228747.00;;;220.60
66299;BMP180;53098;47.658;8.578;2024-03-29T07:08:56;228747.00;;;220.60
66299;BMP180;53098;47.658;8.578;2024-03-29T07:11:22;228747.00;;;220.60
66299;BMP180;53098;47.658;8.578;2024-03-29T07:13:47;228747.00;;;220.60
66299;BMP180;53098;47.658;8.578;2024-03-29T07:16:12;228747.00;;;220.60
66299;BMP180;53098;47.658;8.578;2024-03-29T07:18:38;228747.00;;;220.60
66299;BMP180;53098;47.658;8.578;2024-03-29T07:21:04;228747.00;;;220.60
66299;BMP180;53098;47.658;8.578;2024-03-29T07:23:29;228747.00;;;220.60
66299;BMP180;53098;47.658;8.578;2024-03-29T07:26:02;228747.00;;;220.60
66299;BMP180;53098;47.658;8.578;2024-03-29T07:28:28;228747.00;;;220.60
66299;BMP180;53098;47.658;8.578;2024-03-29T07:30:53;228747.00;;;220.60
66299;BMP180;53098;47.658;8.578;2024-03-29T07:33:20;228747.00;;;220.60
66299;BMP180;53098;47.658;8.578;2024-03-29T07:35:45;228747.00;;;220.60
66299;BMP180;53098;47.658;8.578;2024-03-29T07:38:11;70124.00;;;7.90
66299;BMP180;53098;47.658;8.578;2024-03-29T07:40:36;94682.00;;;7.90
66299;BMP180;53098;47.658;8.578;2024-03-29T07:43:01;313540.00;;;8.10
66299;BMP180;53098;47.658;8.578;2024-03-29T07:45:27;94669.00;;;8.20
66299;BMP180;53098;47.658;8.578;2024-03-29T07:47:52;94665.00;;;8.30
66299;BMP180;53098;47.658;8.578;2024-03-29T07:50:21;94666.00;;;8.40
66299;BMP180;53098;47.658;8.578;2024-03-29T07:52:46;94658.00;;;8.50
66299;BMP180;53098;47.658;8.578;2024-03-29T07:55:11;94662.00;;;8.50
66299;BMP180;53098;47.658;8.578;2024-03-29T07:57:37;94682.00;;;8.50
66299;BMP180;53098;47.658;8.578;2024-03-29T08:00:04;94668.00;;;8.70
66299;BMP180;53098;47.658;8.578;2024-03-29T08:02:29;94661.00;;;8.80
66299;BMP180;53098;47.658;8.578;2024-03-29T08:04:55;94671.00;;;8.80
66299;BMP180;53098;47.658;8.578;2024-03-29T08:07:20;94679.00;;;8.80
66299;BMP180;53098;47.658;8.578;2024-03-29T08:09:46;94688.00;;;8.90
66299;BMP180;53098;47.658;8.578;2024-03-29T08:12:11;94679.00;;;9.10
66299;BMP180;53098;47.658;8.578;2024-03-29T08:14:37;94690.00;;;9.20
66299;BMP180;53098;47.658;8.578;2024-03-29T08:17:02;94697.00;;;9.30
66299;BMP180;53098;47.658;8.578;2024-03-29T08:19:28;94689.00;;;9.40
66299;BMP180;53098;47.658;8.578;2024-03-29T08:21:53;94703.00;;;9.40
66299;BMP180;53098;47.658;8.578;2024-03-29T08:24:19;94697.00;;;9.30
66299;BMP180;53098;47.658;8.578;2024-03-29T08:26:44;94708.00;;;9.20
66299;BMP180;53098;47.658;8.578;2024-03-29T08:29:10;94700.00;;;9.40
66299;BMP180;53098;47.658;8.578;2024-03-29T08:31:35;94709.00;;;9.60
66299;BMP180;53098;47.658;8.578;2024-03-29T08:34:01;94709.00;;;9.80
66299;BMP180;53098;47.658;8.578;2024-03-29T08:36:26;228747.00;;;220.60
66299;BMP180;53098;47.658;8.578;2024-03-29T08:38:52;94709.00;;;9.10
66299;BMP180;53098;47.658;8.578;2024-03-29T08:41:17;94701.00;;;9.20
66299;BMP180;53098;47.658;8.578;2024-03-29T08:43:42;94700.00;;;9.10
66299;BMP180;53098;47.658;8.578;2024-03-29T08:46:08;94680.00;;;9.40
66299;BMP180;53098;47.658;8.578;2024-03-29T08:48:33;94679.00;;;9.50
66299;BMP180;53098;47.658;8.578;2024-03-29T08:50:59;94680.00;;;9.90
66299;BMP180;53098;47.658;8.578;2024-03-29T08:53:24;94658.00;;;10.00
66299;BMP180;53098;47.658;8.578;2024-03-29T08:55:52;94675.00;;;10.10
66299;BMP180;53098;47.658;8.578;2024-03-29T08:58:18;94677.00;;;10.50
66299;BMP180;53098;47.658;8.578;2024-03-29T09:00:43;228747.00;;;-86.00
66299;BMP180;53098;47.658;8.578;2024-03-29T09:03:08;94664.00;;;11.30
66299;BMP180;53098;47.658;8.578;2024-03-29T09:05:34;94660.00;;;11.20
66299;BMP180;53098;47.658;8.578;2024-03-29T09:07:59;94691.00;;;11.00
66299;BMP180;53098;47.658;8.578;2024-03-29T09:10:25;94661.00;;;11.20
66299;BMP180;53098;47.658;8.578;2024-03-29T09:12:51;94679.00;;;11.60
66299;BMP180;53098;47.658;8.578;2024-03-29T09:15:16;94671.00;;;11.40
66299;BMP180;53098;47.658;8.578;2024-03-29T09:17:42;94666.00;;;11.10
66299;BMP180;53098;47.658;8.578;2024-03-29T09:20:08;94662.00;;;11.50
66299;BMP180;53098;47.658;8.578;2024-03-29T09:22:34;94661.00;;;11.70
66299;BMP180;53098;47.658;8.578;2024-03-29T09:24:59;94671.00;;;11.70
66299;BMP180;53098;47.658;8.578;2024-03-29T09:27:26;94681.00;;;11.70
66299;BMP180;53098;47.658;8.578;2024-03-29T09:29:52;94698.00;;;12.00
66299;BMP180;53098;47.658;8.578;2024-03-29T09:32:17;94682.00;;;12.30
66299;BMP180;53098;47.658;8.578;2024-03-29T09:34:43;94680.00;;;12.50
66299;BMP180;53098;47.658;8.578;2024-03-29T09:37:09;94694.00;;;12.20
66299;BMP180;53098;47.658;8.578;2024-03-29T09:39:34;94652.00;;;12.70
66299;BMP180;53098;47.658;8.578;2024-03-29T09:42:02;94664.00;;;12.70
66299;BMP180;53098;47.658;8.578;2024-03-29T09:44:32;228747.00;;;13.00
66299;BMP180;53098;47.658;8.578;2024-03-29T09:47:01;94633.00;;;12.80
66299;BMP180;53098;47.658;8.578;2024-03-29T09:49:27;94642.00;;;13.00
66299;BMP180;53098;47.658;8.578;2024-03-29T09:51:54;94635.00;;;13.30
66299;BMP180;53098;47.658;8.578;2024-03-29T09:54:20;94631.00;;;13.80
66299;BMP180;53098;47.658;8.578;2024-03-29T09:56:46;94623.00;;;13.40
66299;BMP180;53098;47.658;8.578;2024-03-29T09:59:12;94624.00;;;13.60
66299;BMP180;53098;47.658;8.578;2024-03-29T10:01:38;228747.00;;;220.60
66299;BMP180;53098;47.658;8.578;2024-03-29T10:04:05;228747.00;;;220.60
66299;BMP180;53098;47.658;8.578;2024-03-29T10:06:34;228747.00;;;220.60
66299;BMP180;53098;47.658;8.578;2024-03-29T10:09:00;140292.00;;;14.30
66299;BMP180;53098;47.658;8.578;2024-03-29T10:11:25;228747.00;;;220.60
66299;BMP180;53098;47.658;8.578;2024-03-29T10:13:51;228747.00;;;220.60
66299;BMP180;53098;47.658;8.578;2024-03-29T10:16:20;228747.00;;;220.60
66299;BMP180;53098;47.658;8.578;2024-03-29T10:18:47;228747.00;;;220.60
66299;BMP180;53098;47.658;8.578;2024-03-29T10:21:13;94375.00;;;15.20
66299;BMP180;53098;47.658;8.578;2024-03-29T10:23:38;94639.00;;;15.00
66299;BMP180;53098;47.658;8.578;2024-03-29T10:26:04;94635.00;;;14.80
66299;BMP180;53098;47.658;8.578;2024-03-29T10:28:34;228747.00;;;220.60
66299;BMP180;53098;47.658;8.578;2024-03-29T10:31:01;228747.00;;;220.60
66299;BMP180;53098;47.658;8.578;2024-03-29T10:33:30;228747.00;;;220.60
66299;BMP180;53098;47.658;8.578;2024-03-29T10:35:56;228747.00;;;220.60
66299;BMP180;53098;47.658;8.578;2024-03-29T10:38:22;94651.00;;;15.50
66299;BMP180;53098;47.658;8.578;2024-03-29T10:40:49;68431.00;;;15.50
66299;BMP180;53098;47.658;8.578;2024-03-29T10:43:16;94635.00;;;15.60
66299;BMP180;53098;47.658;8.578;2024-03-29T10:45:42;94650.00;;;15.80
66299;BMP180;53098;47.658;8.578;2024-03-29T10:48:09;94648.00;;;15.70
66299;BMP180;53098;47.658;8.578;2024-03-29T10:50:35;94640.00;;;15.70
66299;BMP180;53098;47.658;8.578;2024-03-29T10:53:01;94666.00;;;16.00
66299;BMP180;53098;47.658;8.578;2024-03-29T10:55:29;94672.00;;;15.40
66299;BMP180;53098;47.658;8.578;2024-03-29T10:57:57;94658.00;;;15.20
66299;BMP180;53098;47.658;8.578;2024-03-29T11:00:23;94642.00;;;15.40
66299;BMP180;53098;47.658;8.578;2024-03-29T11:02:49;94618.00;;;15.60
66299;BMP180;53098;47.658;8.578;2024-03-29T11:05:16;94567.00;;;15.60
66299;BMP180;53098;47.658;8.578;2024-03-29T11:07:42;94586.00;;;15.80
66299;BMP180;53098;47.658;8.578;2024-03-29T11:10:13;94601.00;;;15.70
66299;BMP180;53098;47.658;8.578;2024-03-29T11:15:30;94634.00;;;15.90
66299;BMP180;53098;47.658;8.578;2024-03-29T11:17:57;94632.00;;;16.40
66299;BMP180;53098;47.658;8.578;2024-03-29T11:20:26;94628.00;;;16.50
66299;BMP180;53098;47.658;8.578;2024-03-29T11:22:52;94658.00;;;16.40
66299;BMP180;53098;47.658;8.578;2024-03-29T11:25:18;94602.00;;;16.20
66299;BMP180;53098;47.658;8.578;2024-03-29T11:27:44;94595.00;;;16.70
66299;BMP180;53098;47.658;8.578;2024-03-29T11:30:09;94591.00;;;16.60
66299;BMP180;53098;47.658;8.578;2024-03-29T11:32:36;228745.00;;;16.90
66299;BMP180;53098;47.658;8.578;2024-03-29T11:35:01;94573.00;;;16.60
66299;BMP180;53098;47.658;8.578;2024-03-29T11:37:30;94576.00;;;17.20
66299;BMP180;53098;47.658;8.578;2024-03-29T11:39:58;94582.00;;;17.10
66299;BMP180;53098;47.658;8.578;2024-03-29T11:42:38;94578.00;;;17.30
66299;BMP180;53098;47.658;8.578;2024-03-29T11:45:04;94576.00;;;17.50
66299;BMP180;53098;47.658;8.578;2024-03-29T11:47:31;94576.00;;;17.50
66299;BMP180;53098;47.658;8.578;2024-03-29T11:49:56;94578.00;;;17.30
66299;BMP180;53098;47.658;8.578;2024-03-29T11:52:22;94584.00;;;17.20
66299;BMP180;53098;47.658;8.578;2024-03-29T11:54:47;94571.00;;;17.10
66299;BMP180;53098;47.658;8.578;2024-03-29T11:57:13;94577.00;;;17.40
66299;BMP180;53098;47.658;8.578;2024-03-29T11:59:38;94567.00;;;17.80
66299;BMP180;53098;47.658;8.578;2024-03-29T12:02:06;94566.00;;;17.80
66299;BMP180;53098;47.658;8.578;2024-03-29T12:04:34;94563.00;;;18.20
66299;BMP180;53098;47.658;8.578;2024-03-29T12:07:00;94561.00;;;18.10
66299;BMP180;53098;47.658;8.578;2024-03-29T12:09:25;94552.00;;;18.40
66299;BMP180;53098;47.658;8.578;2024-03-29T12:11:51;94556.00;;;18.60
66299;BMP180;53098;47.658;8.578;2024-03-29T12:14:16;94558.00;;;18.40
66299;BMP180;53098;47.658;8.578;2024-03-29T12:16:43;94566.00;;;18.50
66299;BMP180;53098;47.658;8.578;2024-03-29T12:19:08;94570.00;;;18.70
66299;BMP180;53098;47.658;8.578;2024-03-29T12:21:34;94559.00;;;18.90
66299;BMP180;53098;47.658;8.578;2024-03-29T12:24:00;94573.00;;;19.00
66299;BMP180;53098;47.658;8.578;2024-03-29T12:26:26;94573.00;;;18.70
66299;BMP180;53098;47.658;8.578;2024-03-29T12:28:51;94586.00;;;18.60
66299;BMP180;53098;47.658;8.578;2024-03-29T12:31:17;94597.00;;;19.00
66299;BMP180;53098;47.658;8.578;2024-03-29T12:33:51;94600.00;;;18.80
66299;BMP180;53098;47.658;8.578;2024-03-29T12:36:17;94598.00;;;19.00
66299;BMP180;53098;47.658;8.578;2024-03-29T12:38:42;94584.00;;;18.90
66299;BMP180;53098;47.658;8.578;2024-03-29T12:41:07;94580.00;;;19.00
66299;BMP180;53098;47.658;8.578;2024-03-29T12:43:33;94580.00;;;19.20
66299;BMP180;53098;47.658;8.578;2024-03-29T12:45:59;94570.00;;;19.60
66299;BMP180;53098;47.658;8.578;2024-03-29T12:48:25;94474.00;;;19.90
66299;BMP180;53098;47.658;8.578;2024-03-29T12:50:51;94584.00;;;20.20
66299;BMP180;53098;47.658;8.578;2024-03-29T12:53:16;94577.00;;;19.80
66299;BMP180;53098;47.658;8.578;2024-03-29T12:55:43;94575.00;;;19.90
66299;BMP180;53098;47.658;8.578;2024-03-29T12:58:09;94581.00;;;19.10
66299;BMP180;53098;47.658;8.578;2024-03-29T13:00:35;94572.00;;;19.80
66299;BMP180;53098;47.658;8.578;2024-03-29T13:03:03;94568.00;;;19.80
66299;BMP180;53098;47.658;8.578;2024-03-29T13:05:28;94574.00;;;19.70
66299;BMP180;53098;47.658;8.578;2024-03-29T13:07:54;94573.00;;;19.20
66299;BMP180;53098;47.658;8.578;2024-03-29T13:10:20;94568.00;;;19.90
66299;BMP180;53098;47.658;8.578;2024-03-29T13:12:46;94555.00;;;20.00
66299;BMP180;53098;47.658;8.578;2024-03-29T13:15:21;94395.00;;;20.60
66299;BMP180;53098;47.658;8.578;2024-03-29T13:17:48;94567.00;;;20.70
66299;BMP180;53098;47.658;8.578;2024-03-29T13:20:14;94566.00;;;21.10
66299;BMP180;53098;47.658;8.578;2024-03-29T13:22:40;94569.00;;;21.30
66299;BMP180;53098;47.658;8.578;2024-03-29T13:25:05;94565.00;;;20.90
66299;BMP180;53098;47.658;8.578;2024-03-29T13:27:31;94572.00;;;20.90
66299;BMP180;53098;47.658;8.578;2024-03-29T13:29:56;94571.00;;;20.60
66299;BMP180;53098;47.658;8.578;2024-03-29T13:32:22;94561.00;;;20.90
66299;BMP180;53098;47.658;8.578;2024-03-29T13:34:47;94563.00;;;21.10
66299;BMP180;53098;47.658;8.578;2024-03-29T13:37:13;94564.00;;;21.20
66299;BMP180;53098;47.658;8.578;2024-03-29T13:39:38;94561.00;;;21.10
66299;BMP180;53098;47.658;8.578;2024-03-29T13:42:04;94563.00;;;21.00
66299;BMP180;53098;47.658;8.578;2024-03-29T13:44:29;94565.00;;;21.30
66299;BMP180;53098;47.658;8.578;2024-03-29T13:46:55;94562.00;;;21.70
66299;BMP180;53098;47.658;8.578;2024-03-29T13:49:20;94551.00;;;21.90
66299;BMP180;53098;47.658;8.578;2024-03-29T13:51:46;94562.00;;;21.90
66299;BMP180;53098;47.658;8.578;2024-03-29T13:54:12;94570.00;;;21.90
66299;BMP180;53098;47.658;8.578;2024-03-29T13:56:37;86520.00;;;22.20
66299;BMP180;53098;47.658;8.578;2024-03-29T13:59:03;94575.00;;;21.80
66299;BMP180;53098;47.658;8.578;2024-03-29T14:01:29;94574.00;;;21.30